Time;durP1;ratioP1;P1;durP2;ratioP2;P2;SDS_P1;SDS_P2;PMS_P1;PMS_P2;Temp;Humidity;BMP_temperature;BMP_pressure;BME280_temperature;BME280_humidity;BME280_pressure;Samples;Min_cycle;Max_cycle;Signal;HPM_P1;HPM_P2
2022/04/16 00:00:46;;;;;;;10.80;7.35;;;;;;;-144.47;100.00;61586.06;6198571;23;20020;-86
2022/04/16 00:03:12;;;;;;;9.18;7.55;;;;;;;-144.47;100.00;61586.06;6201394;23;19997;-86
2022/04/16 00:05:38;;;;;;;9.95;7.65;;;;;;;-144.47;100.00;61586.06;6178267;23;20010;-86
2022/04/16 00:08:09;;;;;;;11.60;7.85;;;;;;;-144.47;100.00;61586.06;6200673;23;20032;-87
2022/04/16 00:10:37;;;;;;;10.70;7.75;;;;;;;-144.47;100.00;61586.06;6199811;23;20024;-86
2022/04/16 00:13:04;;;;;;;9.27;7.72;;;;;;;-144.47;100.00;61586.06;6192593;23;20106;-87
2022/04/16 00:15:30;;;;;;;13.02;8.30;;;;;;;-144.47;100.00;61586.06;6183742;23;20485;-86
2022/04/16 00:17:55;;;;;;;10.23;7.47;;;;;;;-144.47;100.00;61586.06;6183689;23;20009;-85
2022/04/16 00:20:24;;;;;;;10.05;7.35;;;;;;;-144.47;100.00;61586.06;6183322;23;20119;-87
2022/04/16 00:22:51;;;;;;;8.90;7.80;;;;;;;-144.47;100.00;61586.06;6185523;23;20009;-87
2022/04/16 00:25:19;;;;;;;9.48;7.45;;;;;;;-144.47;100.00;61586.06;6158727;23;20442;-87
2022/04/16 00:27:45;;;;;;;9.30;7.32;;;;;;;-144.47;100.00;61586.06;6200945;23;20036;-86
2022/04/16 00:30:10;;;;;;;11.88;7.90;;;;;;;-144.47;100.00;61586.06;6193646;23;20013;-86
2022/04/16 00:32:36;;;;;;;6.93;6.30;;;;;;;-144.47;100.00;61586.06;6183689;23;20107;-86
2022/04/16 00:35:04;;;;;;;11.85;7.97;;;;;;;-144.47;100.00;61586.06;6185922;23;20009;-86
2022/04/16 00:37:29;;;;;;;10.73;7.13;;;;;;;-144.47;100.00;61586.06;6185908;23;20013;-86
2022/04/16 00:39:54;;;;;;;11.98;8.48;;;;;;;-144.47;100.00;61586.06;6185696;23;20036;-86
2022/04/16 00:42:20;;;;;;;12.65;7.75;;;;;;;-144.47;100.00;61586.06;6185540;23;20067;-87
2022/04/16 00:44:45;;;;;;;10.70;7.40;;;;;;;-144.47;100.00;61586.06;6185872;23;20017;-87
2022/04/16 00:47:12;;;;;;;11.70;7.80;;;;;;;-144.47;100.00;61586.06;6185376;23;20403;-86
2022/04/16 00:49:38;;;;;;;9.63;7.28;;;;;;;-144.47;100.00;61586.06;6185727;23;20468;-86
2022/04/16 00:52:04;;;;;;;10.65;7.60;;;;;;;-144.47;100.00;61586.06;6184997;23;20021;-86
2022/04/16 00:54:30;;;;;;;10.32;7.93;;;;;;;-144.47;100.00;61586.06;6186276;23;20005;-86
2022/04/16 00:56:56;;;;;;;9.20;7.82;;;;;;;-144.47;100.00;61586.06;6187720;23;20031;-86
2022/04/16 00:59:22;;;;;;;9.05;8.05;;;;;;;-144.47;100.00;61586.06;6181933;23;20064;-86
2022/04/16 01:01:47;;;;;;;12.52;8.23;;;;;;;-144.47;100.00;61586.06;6182994;23;20045;-86
2022/04/16 01:04:13;;;;;;;11.32;8.07;;;;;;;-144.47;100.00;61586.06;6183368;23;20013;-86
2022/04/16 01:06:48;;;;;;;11.68;8.95;;;;;;;-144.47;100.00;61586.06;6185004;23;20075;-87
2022/04/16 01:09:14;;;;;;;10.65;8.77;;;;;;;-144.47;100.00;61586.06;6185410;23;20485;-87
2022/04/16 01:11:40;;;;;;;8.75;7.82;;;;;;;-144.47;100.00;61586.06;6185061;23;20044;-86
2022/04/16 01:14:05;;;;;;;13.15;9.30;;;;;;;-144.47;100.00;61586.06;6184604;23;20013;-86
2022/04/16 01:16:32;;;;;;;14.45;8.73;;;;;;;-144.47;100.00;61586.06;6185964;23;20035;-86
2022/04/16 01:18:58;;;;;;;9.75;8.07;;;;;;;-144.47;100.00;61586.06;6185570;23;20044;-85
2022/04/16 01:21:23;;;;;;;12.32;8.15;;;;;;;-144.47;100.00;61586.06;6184685;23;20005;-86
2022/04/16 01:23:49;;;;;;;15.07;8.77;;;;;;;-144.47;100.00;61586.06;6184702;23;20016;-86
2022/04/16 01:26:16;;;;;;;11.27;8.68;;;;;;;-144.47;100.00;61586.06;6185317;23;20017;-87
2022/04/16 01:28:41;;;;;;;11.70;8.45;;;;;;;-144.47;100.00;61586.06;6185520;23;20008;-86
2022/04/16 01:31:07;;;;;;;16.02;9.30;;;;;;;-144.47;100.00;61586.06;6186371;23;20049;-84
2022/04/16 01:33:32;;;;;;;14.52;9.43;;;;;;;-144.47;100.00;61586.06;6203942;23;19997;-85
2022/04/16 01:35:58;;;;;;;11.30;9.43;;;;;;;-144.47;100.00;61586.06;6207757;23;20020;-85
2022/04/16 01:38:26;;;;;;;13.25;9.57;;;;;;;-144.47;100.00;61586.06;6197921;23;20045;-87
2022/04/16 01:40:56;;;;;;;11.07;9.52;;;;;;;-144.47;100.00;61586.06;6186269;23;20027;-86
2022/04/16 01:43:21;;;;;;;13.80;8.50;;;;;;;-144.47;100.00;61586.06;6185210;23;20470;-86
2022/04/16 01:45:48;;;;;;;10.93;9.20;;;;;;;-144.47;100.00;61586.06;6185428;23;20005;-86
2022/04/16 01:48:13;;;;;;;14.10;9.45;;;;;;;-144.47;100.00;61586.06;6185197;23;20009;-86
2022/04/16 01:50:40;;;;;;;11.32;9.02;;;;;;;-144.47;100.00;61586.06;6186578;23;20044;-86
2022/04/16 01:53:06;;;;;;;11.93;9.07;;;;;;;-144.47;100.00;61586.06;6183874;23;20005;-86
2022/04/16 01:55:31;;;;;;;15.25;9.88;;;;;;;-144.47;100.00;61586.06;6187456;23;20016;-86
2022/04/16 01:57:58;;;;;;;14.68;9.20;;;;;;;-144.47;100.00;61586.06;6190839;23;20335;-86
2022/04/16 02:00:24;;;;;;;14.50;9.98;;;;;;;-144.47;100.00;61586.06;6146416;23;20382;-85
2022/04/16 02:02:50;;;;;;;14.70;10.32;;;;;;;-144.47;100.00;61586.06;6197217;23;20028;-87
2022/04/16 02:05:16;;;;;;;14.18;10.10;;;;;;;-144.47;100.00;61586.06;6197800;23;20036;-86
2022/04/16 02:07:42;;;;;;;16.20;11.45;;;;;;;-144.47;100.00;61586.06;6199748;23;20001;-88
2022/04/16 02:10:08;;;;;;;15.48;11.23;;;;;;;-144.47;100.00;61586.06;6192856;23;20351;-86
2022/04/16 02:12:35;;;;;;;13.27;11.10;;;;;;;-144.47;100.00;61586.06;6184062;23;20355;-86
2022/04/16 02:15:01;;;;;;;13.80;11.13;;;;;;;-144.47;100.00;61586.06;6183606;23;20485;-86
2022/04/16 02:17:26;;;;;;;15.95;10.63;;;;;;;-144.47;100.00;61586.06;6183543;23;20013;-86
2022/04/16 02:19:52;;;;;;;14.23;9.82;;;;;;;-144.47;100.00;61586.06;6183175;23;20092;-86
2022/04/16 02:22:17;;;;;;;11.95;9.40;;;;;;;-144.47;100.00;61586.06;6182181;23;20020;-86
2022/04/16 02:24:46;;;;;;;14.30;10.20;;;;;;;-144.47;100.00;61586.06;6182650;23;20013;-86
2022/04/16 02:27:11;;;;;;;12.57;10.07;;;;;;;-144.47;100.00;61586.06;6183496;23;20005;-86
2022/04/16 02:29:37;;;;;;;13.98;10.85;;;;;;;-144.47;100.00;61586.06;6183199;23;20072;-86
2022/04/16 02:32:03;;;;;;;14.95;11.07;;;;;;;-144.47;100.00;61586.06;6181830;23;20017;-86
2022/04/16 02:34:28;;;;;;;12.02;10.73;;;;;;;-144.47;100.00;61586.06;6182440;23;20063;-86
2022/04/16 02:36:54;;;;;;;15.02;10.27;;;;;;;-144.47;100.00;61586.06;6182270;23;20009;-86
2022/04/16 02:39:19;;;;;;;15.65;10.40;;;;;;;-144.47;100.00;61586.06;6181869;23;20017;-86
2022/04/16 02:41:45;;;;;;;15.52;10.20;;;;;;;-144.47;100.00;61586.06;6182711;23;20455;-85
2022/04/16 02:47:15;;;;;;;15.50;9.85;;;;;;;-144.47;100.00;61586.06;6195103;23;20009;-85
2022/04/16 02:49:43;;;;;;;13.10;9.25;;;;;;;-144.47;100.00;61586.06;6181260;23;20498;-86
2022/04/16 02:52:09;;;;;;;17.30;10.40;;;;;;;-144.47;100.00;61586.06;6181546;23;20017;-86
2022/04/16 02:54:35;;;;;;;17.33;9.70;;;;;;;-144.47;100.00;61586.06;6181831;23;20387;-86
2022/04/16 02:57:00;;;;;;;15.80;10.60;;;;;;;-144.47;100.00;61586.06;6182492;23;20311;-86
2022/04/16 02:59:27;;;;;;;18.27;11.25;;;;;;;-144.47;100.00;61586.06;6184044;23;20063;-86
2022/04/16 03:01:54;;;;;;;15.75;10.45;;;;;;;-144.47;100.00;61586.06;6192661;23;20001;-85
2022/04/16 03:04:19;;;;;;;17.35;11.02;;;;;;;-144.47;100.00;61586.06;6190285;23;20023;-86
2022/04/16 03:06:45;;;;;;;14.90;11.13;;;;;;;-144.47;100.00;61586.06;6185861;23;20088;-86
2022/04/16 03:09:10;;;;;;;17.10;10.90;;;;;;;-144.47;100.00;61586.06;6181566;23;20028;-86
2022/04/16 03:11:36;;;;;;;15.52;10.13;;;;;;;-144.47;100.00;61586.06;6182201;23;20017;-86
2022/04/16 03:17:31;;;;;;;13.80;10.45;;;;;;;-144.47;100.00;61586.06;6181468;23;20058;-85
2022/04/16 03:17:49;;;;;;;15.18;10.18;;;;;;;-144.47;100.00;61586.06;6182164;23;20009;-86
2022/04/16 03:19:45;;;;;;;12.80;10.70;;;;;;;-144.47;100.00;61586.06;6168236;23;20017;-87
2022/04/16 03:22:11;;;;;;;15.10;10.68;;;;;;;-144.47;100.00;61586.06;6181232;23;20087;-86
2022/04/16 03:24:36;;;;;;;23.70;11.05;;;;;;;-144.47;100.00;61586.06;6182050;23;20360;-86
2022/04/16 03:27:02;;;;;;;17.80;10.13;;;;;;;-144.47;100.00;61586.06;6181547;23;20016;-86
2022/04/16 03:29:27;;;;;;;18.23;11.32;;;;;;;-144.47;100.00;61586.06;6182167;23;20021;-85
2022/04/16 03:31:53;;;;;;;16.48;11.25;;;;;;;-144.47;100.00;61586.06;6181194;23;20016;-85
2022/04/16 03:34:18;;;;;;;18.98;11.63;;;;;;;-144.47;100.00;61586.06;6180970;23;20023;-85
2022/04/16 03:36:44;;;;;;;19.83;11.98;;;;;;;-144.47;100.00;61586.06;6181720;23;20009;-85
2022/04/16 03:39:09;;;;;;;14.13;10.50;;;;;;;-144.47;100.00;61586.06;6181064;23;20020;-85
2022/04/16 03:41:35;;;;;;;17.63;11.18;;;;;;;-144.47;100.00;61586.06;6181676;23;20004;-84
2022/04/16 03:44:00;;;;;;;14.30;11.32;;;;;;;-144.47;100.00;61586.06;6181696;23;20036;-85
2022/04/16 03:46:26;;;;;;;23.73;11.88;;;;;;;-144.47;100.00;61586.06;6181553;23;20185;-85
2022/04/16 03:48:51;;;;;;;15.77;11.13;;;;;;;-144.47;100.00;61586.06;6181451;23;20013;-85
2022/04/16 03:51:16;;;;;;;15.65;10.90;;;;;;;-144.47;100.00;61586.06;6181706;23;20071;-85
2022/04/16 03:53:42;;;;;;;15.02;10.77;;;;;;;-144.47;100.00;61586.06;6186006;23;20013;-85
2022/04/16 04:01:40;;;;;;;16.35;10.88;;;;;;;-144.47;100.00;61586.06;6139169;23;20083;-85
2022/04/16 04:04:05;;;;;;;14.75;11.13;;;;;;;-144.47;100.00;61586.06;6180837;23;20013;-85
2022/04/16 04:06:31;;;;;;;12.77;11.05;;;;;;;-144.47;100.00;61586.06;6154945;23;20333;-85
2022/04/16 04:08:57;;;;;;;14.45;10.27;;;;;;;-144.47;100.00;61586.06;6183054;23;20084;-85
2022/04/16 04:11:22;;;;;;;15.48;11.65;;;;;;;-144.47;100.00;61586.06;6182842;23;20048;-84
2022/04/16 04:13:47;;;;;;;15.10;11.35;;;;;;;-144.47;100.00;61586.06;6182929;23;20097;-85
2022/04/16 04:16:13;;;;;;;17.13;11.52;;;;;;;-144.47;100.00;61586.06;6183092;23;19997;-85
2022/04/16 04:18:38;;;;;;;19.85;12.23;;;;;;;-144.47;100.00;61586.06;6183292;23;20013;-85
2022/04/16 04:21:04;;;;;;;18.85;12.02;;;;;;;-144.47;100.00;61586.06;6182984;23;20334;-85
2022/04/16 04:23:29;;;;;;;17.75;12.02;;;;;;;-144.47;100.00;61586.06;6183109;23;20024;-85
2022/04/16 04:25:55;;;;;;;14.38;12.10;;;;;;;-144.47;100.00;61586.06;6183294;23;20015;-85
2022/04/16 04:28:20;;;;;;;13.77;10.85;;;;;;;-144.47;100.00;61586.06;6182746;23;20009;-85
2022/04/16 04:30:46;;;;;;;15.93;11.80;;;;;;;-144.47;100.00;61586.06;6157024;23;20051;-85
2022/04/16 04:33:11;;;;;;;22.15;11.98;;;;;;;-144.47;100.00;61586.06;6182685;23;20187;-85
2022/04/16 04:35:37;;;;;;;14.68;11.60;;;;;;;-144.47;100.00;61586.06;6183381;23;20027;-85
2022/04/16 04:38:02;;;;;;;15.65;11.75;;;;;;;-144.47;100.00;61586.06;6183308;23;20013;-84
2022/04/16 04:40:29;;;;;;;15.70;12.10;;;;;;;-144.47;100.00;61586.06;6182941;23;20508;-85
2022/04/16 04:42:54;;;;;;;20.73;11.68;;;;;;;-144.47;100.00;61586.06;6183115;23;20001;-84
2022/04/16 04:45:20;;;;;;;18.80;11.88;;;;;;;-144.47;100.00;61586.06;6182428;23;20009;-85
2022/04/16 04:47:45;;;;;;;14.57;11.45;;;;;;;-144.47;100.00;61586.06;6183076;23;20287;-85
2022/04/16 04:50:11;;;;;;;18.00;12.23;;;;;;;-144.47;100.00;61586.06;6182375;23;20013;-85
2022/04/16 04:52:39;;;;;;;16.15;11.55;;;;;;;-144.47;100.00;61586.06;6183526;23;20232;-85
2022/04/16 04:55:10;;;;;;;15.02;12.25;;;;;;;-144.47;100.00;61586.06;6183467;23;20009;-85
2022/04/16 04:57:35;;;;;;;17.85;12.30;;;;;;;-144.47;100.00;61586.06;6193267;23;20035;-85
2022/04/16 05:00:01;;;;;;;15.75;11.70;;;;;;;-144.47;100.00;61586.06;6206524;23;20009;-85
2022/04/16 05:02:27;;;;;;;19.02;12.70;;;;;;;-144.47;100.00;61586.06;6169706;23;20005;-85
2022/04/16 05:04:52;;;;;;;16.17;11.77;;;;;;;-144.47;100.00;61586.06;6189107;23;20012;-84
2022/04/16 05:07:18;;;;;;;18.63;11.18;;;;;;;-144.47;100.00;61586.06;6182558;23;20080;-85
2022/04/16 05:09:43;;;;;;;17.30;12.35;;;;;;;-144.47;100.00;61586.06;6182670;23;20076;-85
2022/04/16 05:12:09;;;;;;;20.80;12.63;;;;;;;-144.47;100.00;61586.06;6181715;23;20048;-85
2022/04/16 05:14:34;;;;;;;16.55;11.93;;;;;;;-144.47;100.00;61586.06;6182164;23;20390;-85
2022/04/16 05:17:00;;;;;;;15.40;11.85;;;;;;;-144.47;100.00;61586.06;6182182;23;20009;-86
2022/04/16 05:19:26;;;;;;;18.98;12.23;;;;;;;-144.47;100.00;61586.06;6180996;23;20065;-85
2022/04/16 05:21:51;;;;;;;16.50;12.57;;;;;;;-144.47;100.00;61586.06;6181732;23;20005;-85
2022/04/16 05:24:16;;;;;;;19.70;12.40;;;;;;;-144.47;100.00;61586.06;6181459;23;20049;-85
2022/04/16 05:26:42;;;;;;;17.63;12.70;;;;;;;-144.47;100.00;61586.06;6182266;23;20421;-85
2022/04/16 05:29:07;;;;;;;20.88;12.35;;;;;;;-144.47;100.00;61586.06;6155328;23;20005;-85
2022/04/16 05:31:34;;;;;;;15.73;12.95;;;;;;;-144.47;100.00;61586.06;6181986;23;20394;-85
2022/04/16 05:34:18;;;;;;;16.23;13.13;;;;;;;-144.47;100.00;61586.06;6155766;23;20009;-85
2022/04/16 05:36:46;;;;;;;17.60;12.27;;;;;;;-144.47;100.00;61586.06;6182466;23;20428;-85
2022/04/16 05:39:12;;;;;;;15.13;11.75;;;;;;;-144.47;100.00;61586.06;6182382;23;20008;-85
2022/04/16 05:41:38;;;;;;;19.77;12.52;;;;;;;-144.47;100.00;61586.06;6182093;23;20021;-85
2022/04/16 05:44:06;;;;;;;17.35;12.45;;;;;;;-144.47;100.00;61586.06;6182147;23;20431;-85
2022/04/16 05:46:32;;;;;;;15.40;11.15;;;;;;;-144.47;100.00;61586.06;6182196;23;20438;-86
2022/04/16 05:48:58;;;;;;;18.73;12.80;;;;;;;-144.47;100.00;61586.06;6181762;23;20008;-85
2022/04/16 05:51:25;;;;;;;20.05;12.20;;;;;;;-144.47;100.00;61586.06;6180965;23;20396;-85
2022/04/16 05:53:51;;;;;;;18.50;12.32;;;;;;;-144.47;100.00;61586.06;6155824;23;20040;-86
2022/04/16 05:56:18;;;;;;;17.08;13.05;;;;;;;-144.47;100.00;61586.06;6183317;23;20052;-85
2022/04/16 05:58:43;;;;;;;17.15;12.68;;;;;;;-144.47;100.00;61586.06;6159292;23;20482;-85
2022/04/16 06:01:10;;;;;;;16.98;12.60;;;;;;;-144.47;100.00;61586.06;6181500;23;20005;-84
2022/04/16 06:03:36;;;;;;;15.00;12.23;;;;;;;-144.47;100.00;61586.06;6181619;23;20078;-84
2022/04/16 06:06:04;;;;;;;21.63;14.30;;;;;;;-144.47;100.00;61586.06;6181449;23;20247;-84
2022/04/16 06:08:30;;;;;;;19.17;14.07;;;;;;;-144.47;100.00;61586.06;6181513;23;20009;-84
2022/04/16 06:10:55;;;;;;;22.08;14.13;;;;;;;-144.47;100.00;61586.06;6181244;23;20075;-84
2022/04/16 06:13:20;;;;;;;18.60;13.82;;;;;;;-144.47;100.00;61586.06;6181960;23;20091;-85
2022/04/16 06:15:46;;;;;;;20.13;14.90;;;;;;;-144.47;100.00;61586.06;6181765;23;20031;-84
2022/04/16 06:18:12;;;;;;;23.95;14.80;;;;;;;-144.47;100.00;61586.06;6181265;23;20083;-84
2022/04/16 06:20:38;;;;;;;23.90;15.85;;;;;;;-144.47;100.00;61586.06;6181367;23;20103;-84
2022/04/16 06:23:04;;;;;;;25.73;15.45;;;;;;;-144.47;100.00;61586.06;6154852;23;20035;-85
2022/04/16 06:25:30;;;;;;;23.40;15.20;;;;;;;-144.47;100.00;61586.06;6181369;23;20005;-85
2022/04/16 06:27:55;;;;;;;24.27;15.95;;;;;;;-144.47;100.00;61586.06;6182023;23;20016;-84
2022/04/16 06:30:21;;;;;;;22.35;15.98;;;;;;;-144.47;100.00;61586.06;6181416;23;20042;-84
2022/04/16 06:32:47;;;;;;;25.10;15.95;;;;;;;-144.47;100.00;61586.06;6181773;23;20391;-84
2022/04/16 06:35:12;;;;;;;20.90;16.35;;;;;;;-144.47;100.00;61586.06;6181674;23;20323;-84
2022/04/16 06:37:41;;;;;;;23.65;16.38;;;;;;;-144.47;100.00;61586.06;6181979;23;20013;-84
2022/04/16 06:40:07;;;;;;;24.25;15.25;;;;;;;-144.47;100.00;61586.06;6182165;23;20005;-85
2022/04/16 06:42:33;;;;;;;24.90;17.02;;;;;;;-144.47;100.00;61586.06;6182575;23;20009;-85
2022/04/16 06:44:58;;;;;;;27.38;16.05;;;;;;;-144.47;100.00;61586.06;6182699;23;20013;-85
2022/04/16 06:47:24;;;;;;;23.30;16.88;;;;;;;-144.47;100.00;61586.06;6181856;23;20072;-85
2022/04/16 06:49:50;;;;;;;29.27;16.63;;;;;;;-144.47;100.00;61586.06;6182034;23;20342;-84
2022/04/16 06:52:18;;;;;;;25.88;16.35;;;;;;;-144.47;100.00;61586.06;6182042;23;20401;-85
2022/04/16 06:54:45;;;;;;;23.98;15.75;;;;;;;-144.47;100.00;61586.06;6182240;23;20399;-85
2022/04/16 06:57:10;;;;;;;24.05;15.75;;;;;;;-144.47;100.00;61586.06;6181718;23;20052;-85
2022/04/16 06:59:37;;;;;;;26.17;16.25;;;;;;;-144.47;100.00;61586.06;6182094;23;20088;-85
2022/04/16 07:02:07;;;;;;;19.83;15.10;;;;;;;-144.47;100.00;61586.06;6181551;23;20339;-85
2022/04/16 07:04:33;;;;;;;22.23;15.20;;;;;;;-144.47;100.00;61586.06;6182178;23;20013;-85
2022/04/16 07:06:59;;;;;;;25.52;16.48;;;;;;;-144.47;100.00;61586.06;6182963;23;20081;-85
2022/04/16 07:09:24;;;;;;;19.15;15.80;;;;;;;-144.47;100.00;61586.06;6181008;23;20013;-85
2022/04/16 07:11:50;;;;;;;24.88;15.25;;;;;;;-144.47;100.00;61586.06;6181752;23;20287;-85
2022/04/16 07:14:16;;;;;;;20.35;15.48;;;;;;;-144.47;100.00;61586.06;6181562;23;20001;-85
2022/04/16 07:16:42;;;;;;;24.83;15.15;;;;;;;-144.47;100.00;61586.06;6181814;23;20388;-85
2022/04/16 07:19:07;;;;;;;24.65;15.95;;;;;;;-144.47;100.00;61586.06;6181008;23;20017;-85
2022/04/16 07:21:33;;;;;;;28.48;15.93;;;;;;;-144.47;100.00;61586.06;6181855;23;20005;-85
2022/04/16 07:23:58;;;;;;;22.33;16.13;;;;;;;-144.47;100.00;61586.06;6181870;23;20097;-85
2022/04/16 07:26:24;;;;;;;26.35;16.55;;;;;;;-144.47;100.00;61586.06;6181880;23;20013;-85
2022/04/16 07:28:49;;;;;;;29.30;16.95;;;;;;;-144.47;100.00;61586.06;6181545;23;20017;-85
2022/04/16 07:31:15;;;;;;;22.95;15.88;;;;;;;-144.47;100.00;61586.06;6180788;23;20016;-85
2022/04/16 07:33:40;;;;;;;23.85;16.98;;;;;;;-144.47;100.00;61586.06;6180945;23;20449;-85
2022/04/16 07:36:05;;;;;;;24.73;16.00;;;;;;;-144.47;100.00;61586.06;6180957;23;20075;-85
2022/04/16 07:38:31;;;;;;;28.00;16.63;;;;;;;-144.47;100.00;61586.06;6181221;23;20083;-85
2022/04/16 07:40:56;;;;;;;27.25;16.23;;;;;;;-144.47;100.00;61586.06;6155761;23;20069;-86
2022/04/16 07:43:22;;;;;;;26.40;16.60;;;;;;;-144.47;100.00;61586.06;6180798;23;20009;-86
2022/04/16 07:45:47;;;;;;;29.77;17.35;;;;;;;-144.47;100.00;61586.06;6181422;23;20008;-85
2022/04/16 07:48:13;;;;;;;28.73;16.02;;;;;;;-144.47;100.00;61586.06;6180948;23;20013;-84
2022/04/16 07:50:38;;;;;;;30.63;16.75;;;;;;;-144.47;100.00;61586.06;6180769;23;20044;-82
2022/04/16 07:53:04;;;;;;;27.52;16.73;;;;;;;-144.47;100.00;61586.06;6180987;23;20009;-85
2022/04/16 07:55:32;;;;;;;30.90;17.67;;;;;;;-144.47;100.00;61586.06;6183790;23;20020;-80
2022/04/16 07:57:58;;;;;;;28.67;18.10;;;;;;;-144.47;100.00;61586.06;6181589;23;20016;-89
2022/04/16 08:00:24;;;;;;;28.60;17.48;;;;;;;-144.47;100.00;61586.06;6181483;23;20013;-88
2022/04/16 08:02:49;;;;;;;29.73;18.52;;;;;;;-144.47;100.00;61586.06;6182850;23;20017;-89
2022/04/16 08:05:15;;;;;;;30.55;18.58;;;;;;;-144.47;100.00;61586.06;6181451;23;20078;-89
2022/04/16 08:07:40;;;;;;;32.58;18.48;;;;;;;-144.47;100.00;61586.06;6156109;23;20017;-88
2022/04/16 08:10:06;;;;;;;28.48;18.30;;;;;;;-144.47;100.00;61586.06;6182106;23;20101;-89
2022/04/16 08:12:32;;;;;;;33.47;19.27;;;;;;;-144.47;100.00;61586.06;6182846;23;20024;-88
2022/04/16 08:14:57;;;;;;;30.40;19.10;;;;;;;-144.47;100.00;61586.06;6181930;23;20009;-88
2022/04/16 08:17:23;;;;;;;30.38;19.00;;;;;;;-144.47;100.00;61586.06;6180978;23;20017;-88
2022/04/16 08:19:48;;;;;;;35.75;18.75;;;;;;;-144.47;100.00;61586.06;6154075;23;20013;-89
2022/04/16 08:22:18;;;;;;;34.30;20.40;;;;;;;-144.47;100.00;61586.06;6181629;23;20020;-88
2022/04/16 08:27:31;;;;;;;33.10;20.38;;;;;;;-144.47;100.00;61586.06;6203967;23;20001;-88
2022/04/16 08:29:57;;;;;;;31.55;19.67;;;;;;;-144.47;100.00;61586.06;6192819;23;20033;-88
2022/04/16 08:32:22;;;;;;;37.55;20.63;;;;;;;-144.47;100.00;61586.06;6187605;23;20024;-89
2022/04/16 08:34:47;;;;;;;31.88;21.13;;;;;;;-144.47;100.00;61586.06;6181120;23;20049;-88
2022/04/16 08:37:13;;;;;;;26.73;19.05;;;;;;;-144.47;100.00;61586.06;6181042;23;20013;-88
2022/04/16 08:39:38;;;;;;;30.30;19.40;;;;;;;-144.47;100.00;61586.06;6181382;23;20067;-89
2022/04/16 08:42:04;;;;;;;30.02;20.13;;;;;;;-144.47;100.00;61586.06;6181339;23;20007;-87
2022/04/16 08:44:31;;;;;;;30.85;19.40;;;;;;;-144.47;100.00;61586.06;6182179;23;20013;-88
2022/04/16 08:46:58;;;;;;;33.72;19.80;;;;;;;-144.47;100.00;61586.06;6181884;23;20013;-89
2022/04/16 08:49:25;;;;;;;30.83;19.83;;;;;;;-144.47;100.00;61586.06;6180768;23;20013;-88
2022/04/16 08:51:51;;;;;;;32.58;20.85;;;;;;;-144.47;100.00;61586.06;6182308;23;20008;-88
2022/04/16 08:54:16;;;;;;;34.65;20.42;;;;;;;-144.47;100.00;61586.06;6182850;23;20048;-88
2022/04/16 08:56:42;;;;;;;32.22;18.73;;;;;;;-144.47;100.00;61586.06;6159203;23;20047;-89
2022/04/16 08:59:09;;;;;;;30.90;18.92;;;;;;;-144.47;100.00;61586.06;6184691;23;20012;-88
2022/04/16 09:01:34;;;;;;;28.30;19.52;;;;;;;-144.47;100.00;61586.06;6184193;23;20012;-88
2022/04/16 09:04:00;;;;;;;30.08;19.02;;;;;;;-144.47;100.00;61586.06;6189903;23;20016;-88
2022/04/16 09:06:27;;;;;;;29.98;19.17;;;;;;;-144.47;100.00;61586.06;6192244;23;20127;-88
2022/04/16 09:08:53;;;;;;;31.88;20.00;;;;;;;-144.47;100.00;61586.06;6183756;23;20040;-88
2022/04/16 09:11:25;;;;;;;29.30;18.80;;;;;;;-144.47;100.00;61586.06;6182409;23;20447;-88
2022/04/16 09:13:53;;;;;;;25.48;16.60;;;;;;;-144.47;100.00;61586.06;6183025;23;20100;-88
2022/04/16 09:16:19;;;;;;;26.38;15.82;;;;;;;-144.47;100.00;61586.06;6183579;23;20488;-88
2022/04/16 09:18:52;;;;;;;29.42;16.52;;;;;;;-144.47;100.00;61586.06;6183700;23;20013;-88
2022/04/16 09:21:19;;;;;;;30.88;17.80;;;;;;;-144.47;100.00;61586.06;6183174;23;20285;-88
2022/04/16 09:23:51;;;;;;;25.17;17.42;;;;;;;-144.47;100.00;61586.06;6184566;23;19997;-88
2022/04/16 09:26:37;;;;;;;26.58;16.80;;;;;;;-144.47;100.00;61586.06;6184348;23;20013;-88
2022/04/16 09:29:07;;;;;;;26.13;17.90;;;;;;;-144.47;100.00;61586.06;6184942;23;20016;-88
2022/04/16 09:31:34;;;;;;;21.80;15.15;;;;;;;-144.47;100.00;61586.06;6187329;23;20013;-88
2022/04/16 09:37:15;;;;;;;21.73;14.63;;;;;;;-144.47;100.00;61586.06;6182324;23;20330;-79
2022/04/16 09:39:43;;;;;;;22.33;14.57;;;;;;;-144.47;100.00;61586.06;6182767;23;20021;-78
2022/04/16 09:42:34;;;;;;;24.50;15.75;;;;;;;-144.47;100.00;61586.06;6182395;23;20005;-79
2022/04/16 09:45:57;;;;;;;22.00;14.93;;;;;;;-144.47;100.00;61586.06;6182362;23;20033;-78
2022/04/16 09:49:08;;;;;;;19.45;13.82;;;;;;;-144.47;100.00;61586.06;6090592;23;20386;-80
2022/04/16 09:51:35;;;;;;;18.65;12.38;;;;;;;-144.47;100.00;61586.06;6091241;23;20306;-77
2022/04/16 09:54:05;;;;;;;18.52;11.23;;;;;;;-144.47;100.00;61586.06;6091514;23;20348;-79
2022/04/16 09:56:33;;;;;;;16.73;11.07;;;;;;;-144.47;100.00;61586.06;6091490;23;20105;-78
2022/04/16 09:59:12;;;;;;;16.08;10.27;;;;;;;-144.47;100.00;61586.06;6091581;23;20086;-79
2022/04/16 10:01:39;;;;;;;19.75;11.30;;;;;;;-144.47;100.00;61586.06;6091190;23;20352;-78
2022/04/16 10:04:08;;;;;;;15.27;10.65;;;;;;;-144.47;100.00;61586.06;6090727;23;20097;-78
2022/04/16 10:06:35;;;;;;;15.70;10.10;;;;;;;-144.47;100.00;61586.06;6091224;23;20014;-79
2022/04/16 10:09:13;;;;;;;13.68;9.68;;;;;;;-144.47;100.00;61586.06;6091571;23;20149;-79
2022/04/16 10:14:51;;;;;;;10.80;8.00;;;;;;;-144.47;100.00;61586.06;6066116;23;20022;-78
2022/04/16 10:17:30;;;;;;;12.85;7.95;;;;;;;-144.47;100.00;61586.06;6091319;23;20217;-79
2022/04/16 10:20:20;;;;;;;11.15;8.25;;;;;;;-144.47;100.00;61586.06;6090878;23;20098;-79
2022/04/16 10:22:54;;;;;;;12.53;9.00;;;;;;;-144.47;100.00;61586.06;6082734;23;20013;-79
2022/04/16 10:25:39;;;;;;;15.35;9.82;;;;;;;-144.47;100.00;61586.06;6182553;23;20013;-78
2022/04/16 10:28:06;;;;;;;15.00;10.07;;;;;;;-144.47;100.00;61586.06;6182377;23;20013;-79
2022/04/16 10:30:56;;;;;;;16.13;10.45;;;;;;;-144.47;100.00;61586.06;6156614;23;20299;-79
2022/04/16 10:33:31;;;;;;;15.38;9.77;;;;;;;-144.47;100.00;61586.06;6181983;23;20017;-78
2022/04/16 10:36:09;;;;;;;12.32;9.23;;;;;;;-144.47;100.00;61586.06;6182136;23;20450;-79
2022/04/16 10:38:37;;;;;;;13.43;8.88;;;;;;;-144.47;100.00;61586.06;6182747;23;20005;-78
2022/04/16 10:41:18;;;;;;;11.85;8.32;;;;;;;-144.47;100.00;61586.06;6182382;23;20021;-78
2022/04/16 10:43:54;;;;;;;11.25;8.07;;;;;;;-144.47;100.00;61586.06;6182671;23;20016;-79
2022/04/16 10:46:19;;;;;;;9.63;7.82;;;;;;;-144.47;100.00;61586.06;6182061;23;20013;-79
2022/04/16 10:48:45;;;;;;;10.55;8.07;;;;;;;-144.47;100.00;61586.06;6154999;23;20362;-79
2022/04/16 10:51:10;;;;;;;10.32;7.75;;;;;;;-144.47;100.00;61586.06;6181181;23;20036;-78
2022/04/16 10:53:37;;;;;;;9.90;8.13;;;;;;;-144.47;100.00;61586.06;6182387;23;20016;-78
2022/04/16 10:56:17;;;;;;;13.07;9.07;;;;;;;-144.47;100.00;61586.06;6182406;23;20005;-79
2022/04/16 10:58:45;;;;;;;11.65;8.38;;;;;;;-144.47;100.00;61586.06;6182415;23;20502;-79
2022/04/16 11:01:12;;;;;;;13.48;9.68;;;;;;;-144.47;100.00;61586.06;6181941;23;20036;-80
2022/04/16 11:03:46;;;;;;;14.02;9.05;;;;;;;-144.47;100.00;61586.06;6181900;23;20044;-79
2022/04/16 11:06:12;;;;;;;12.40;9.70;;;;;;;-144.47;100.00;61586.06;6181615;23;20013;-78
2022/04/16 11:08:40;;;;;;;13.85;9.98;;;;;;;-144.47;100.00;61586.06;6182031;23;20091;-78
2022/04/16 11:11:07;;;;;;;12.75;9.20;;;;;;;-144.47;100.00;61586.06;6182082;23;20032;-79
2022/04/16 11:13:34;;;;;;;14.50;8.95;;;;;;;-144.47;100.00;61586.06;6182368;23;20020;-79
2022/04/16 11:16:01;;;;;;;12.98;9.30;;;;;;;-144.47;100.00;61586.06;6183602;23;20040;-79